ESK39Q LEPA-LOWI
Flight info
| Callsign | ESK39Q |
|---|---|
| Flight time | 1h 36m |
| Altitude | 35000 |
| Route | LEPA/24R N0455F350 MERO5A MEROS DCT LAPIT DCT CHELY DCT LUMAS DCT UNANA DCT STP DCT RAPED DCT PIGOS DCT EKSID DCT NOSTA DCT NOPMU DCT ABESI DCT UTAVO DCT ROLSA DCT DEGES DCT GAMSA N871 MADEB MADE1B LOWI/08 |
| Aircraft | B738/M-SDE2E3FGHIJ3J4J7RWXY/L |
Departure
| Time | 2026-05-04 16:58 |
|---|---|
| Airport | Palma de Mallorca Airport (LEPA) |
Arrival
| Time | 2026-05-04 18:34 |
|---|---|
| Airport | Innsbruck Airport (LOWI) |
| Time | Latitude | Longitude | Altitude | Speed | Heading |
|---|---|---|---|---|---|
| 2026-05-04 16:26 | 39.55206 | 2.72802 | 28 ft | 0 kts | 194° |
| 2026-05-04 16:49 | 39.55205 | 2.72802 | 28 ft | 1 kts | 194° |
| 2026-05-04 16:50 | 39.55153 | 2.72797 | 29 ft | 7 kts | 172° |
| 2026-05-04 16:50 | 39.55183 | 2.72894 | 30 ft | 16 kts | 58° |
| 2026-05-04 16:51 | 39.55385 | 2.72977 | 31 ft | 18 kts | 359° |
| 2026-05-04 16:51 | 39.55454 | 2.73077 | 27 ft | 16 kts | 59° |
| 2026-05-04 16:51 | 39.55607 | 2.73402 | 29 ft | 24 kts | 59° |
| 2026-05-04 16:52 | 39.55774 | 2.73753 | 24 ft | 22 kts | 58° |
| 2026-05-04 16:52 | 39.55855 | 2.73921 | 24 ft | 22 kts | 58° |
| 2026-05-04 16:53 | 39.56008 | 2.74241 | 17 ft | 20 kts | 52° |
| 2026-05-04 16:53 | 39.56049 | 2.74289 | 17 ft | 0 kts | 30° |
| 2026-05-04 16:54 | 39.56052 | 2.74291 | 17 ft | 2 kts | 30° |
| 2026-05-04 16:55 | 39.56156 | 2.74355 | 17 ft | 12 kts | 15° |
| 2026-05-04 16:55 | 39.56222 | 2.74243 | 16 ft | 0 kts | 238° |
| 2026-05-04 16:57 | 39.56126 | 2.74041 | 19 ft | 63 kts | 238° |
| 2026-05-04 16:57 | 39.55192 | 2.72115 | 302 ft | 165 kts | 238° |
| 2026-05-04 16:58 | 39.53240 | 2.68073 | 2216 ft | 205 kts | 237° |
| 2026-05-04 16:58 | 39.52474 | 2.66512 | 2839 ft | 206 kts | 237° |
| 2026-05-04 16:59 | 39.50905 | 2.63323 | 4140 ft | 210 kts | 237° |
| 2026-05-04 17:00 | 39.45574 | 2.61186 | 6239 ft | 272 kts | 147° |
| 2026-05-04 17:00 | 39.43755 | 2.68311 | 8553 ft | 303 kts | 94° |
| 2026-05-04 17:01 | 39.43785 | 2.73852 | 10025 ft | 313 kts | 93° |
| 2026-05-04 17:01 | 39.43757 | 2.79784 | 10624 ft | 353 kts | 94° |
| 2026-05-04 17:02 | 39.43649 | 2.86512 | 11134 ft | 389 kts | 94° |
| 2026-05-04 17:02 | 39.43503 | 2.93603 | 12388 ft | 398 kts | 94° |
| 2026-05-04 17:03 | 39.43422 | 2.97202 | 13042 ft | 403 kts | 94° |
| 2026-05-04 17:03 | 39.43338 | 3.00842 | 13669 ft | 407 kts | 93° |
| 2026-05-04 17:03 | 39.43165 | 3.08173 | 14889 ft | 413 kts | 93° |
| 2026-05-04 17:04 | 39.42985 | 3.15646 | 16111 ft | 419 kts | 93° |
| 2026-05-04 17:04 | 39.42989 | 3.23223 | 17271 ft | 426 kts | 82° |
| 2026-05-04 17:05 | 39.44824 | 3.30519 | 18418 ft | 430 kts | 60° |
| 2026-05-04 17:05 | 39.47916 | 3.37206 | 19354 ft | 437 kts | 57° |
| 2026-05-04 17:06 | 39.51116 | 3.43973 | 20283 ft | 444 kts | 57° |
| 2026-05-04 17:06 | 39.52719 | 3.47408 | 20749 ft | 447 kts | 58° |
| 2026-05-04 17:07 | 39.55931 | 3.54380 | 21631 ft | 454 kts | 58° |
| 2026-05-04 17:07 | 39.57022 | 3.56763 | 21918 ft | 456 kts | 58° |
| 2026-05-04 17:07 | 39.59170 | 3.61468 | 22504 ft | 460 kts | 58° |
| 2026-05-04 17:07 | 39.60799 | 3.65043 | 22948 ft | 462 kts | 58° |
| 2026-05-04 17:08 | 39.62439 | 3.68645 | 23358 ft | 465 kts | 58° |
| 2026-05-04 17:08 | 39.65747 | 3.75919 | 24077 ft | 470 kts | 58° |
| 2026-05-04 17:08 | 39.67408 | 3.79579 | 24452 ft | 472 kts | 59° |
| 2026-05-04 17:09 | 39.69076 | 3.83256 | 24771 ft | 475 kts | 59° |
| 2026-05-04 17:09 | 39.70755 | 3.86963 | 25102 ft | 477 kts | 59° |
| 2026-05-04 17:09 | 39.72439 | 3.90684 | 25442 ft | 479 kts | 59° |
| 2026-05-04 17:10 | 39.75829 | 3.98190 | 26070 ft | 484 kts | 59° |
| 2026-05-04 17:10 | 39.80968 | 4.09604 | 26995 ft | 490 kts | 59° |
| 2026-05-04 17:11 | 39.82693 | 4.13443 | 27275 ft | 493 kts | 59° |
| 2026-05-04 17:11 | 39.84524 | 4.17219 | 27521 ft | 495 kts | 51° |
| 2026-05-04 17:11 | 39.90008 | 4.22461 | 28090 ft | 492 kts | 18° |
| 2026-05-04 17:12 | 39.93307 | 4.23547 | 28346 ft | 490 kts | 7° |
| 2026-05-04 17:12 | 40.00065 | 4.24973 | 28872 ft | 493 kts | 6° |
| 2026-05-04 17:13 | 40.10188 | 4.27218 | 29991 ft | 492 kts | 7° |
| 2026-05-04 17:14 | 40.20293 | 4.29605 | 30856 ft | 491 kts | 7° |
| 2026-05-04 17:14 | 40.23655 | 4.30403 | 31126 ft | 492 kts | 8° |
| 2026-05-04 17:14 | 40.30383 | 4.31998 | 31709 ft | 491 kts | 8° |
| 2026-05-04 17:15 | 40.33745 | 4.32795 | 31987 ft | 491 kts | 7° |
| 2026-05-04 17:15 | 40.40466 | 4.34389 | 32521 ft | 491 kts | 7° |
| 2026-05-04 17:16 | 40.47131 | 4.35974 | 33086 ft | 490 kts | 7° |
| 2026-05-04 17:16 | 40.57197 | 4.38374 | 33871 ft | 489 kts | 8° |
| 2026-05-04 17:17 | 40.60545 | 4.39175 | 34121 ft | 489 kts | 7° |
| 2026-05-04 17:17 | 40.70537 | 4.41569 | 34882 ft | 485 kts | 7° |
| 2026-05-04 17:18 | 40.73867 | 4.42367 | 34914 ft | 488 kts | 7° |
| 2026-05-04 17:19 | 40.87202 | 4.45577 | 34925 ft | 484 kts | 7° |
| 2026-05-04 17:20 | 41.00398 | 4.48773 | 34922 ft | 481 kts | 7° |
| 2026-05-04 17:20 | 41.10281 | 4.51175 | 34931 ft | 482 kts | 7° |
| 2026-05-04 17:21 | 41.23532 | 4.54403 | 34930 ft | 486 kts | 7° |
| 2026-05-04 17:22 | 41.30201 | 4.56034 | 34931 ft | 488 kts | 7° |
| 2026-05-04 17:23 | 41.43615 | 4.59326 | 34924 ft | 491 kts | 7° |
| 2026-05-04 17:24 | 41.53668 | 4.61802 | 34923 ft | 492 kts | 7° |
| 2026-05-04 17:25 | 41.67128 | 4.65130 | 34922 ft | 491 kts | 7° |
| 2026-05-04 17:25 | 41.73628 | 4.68164 | 34939 ft | 496 kts | 28° |
| 2026-05-04 17:26 | 41.79018 | 4.73812 | 34940 ft | 497 kts | 44° |
| 2026-05-04 17:27 | 41.91179 | 4.90249 | 34937 ft | 496 kts | 44° |
| 2026-05-04 17:28 | 42.00992 | 5.03307 | 34938 ft | 497 kts | 44° |
| 2026-05-04 17:29 | 42.15748 | 5.23030 | 34952 ft | 500 kts | 44° |
| 2026-05-04 17:31 | 42.28080 | 5.39628 | 34955 ft | 502 kts | 44° |
| 2026-05-04 17:32 | 42.40417 | 5.56329 | 34966 ft | 502 kts | 44° |
| 2026-05-04 17:33 | 42.50279 | 5.69751 | 34976 ft | 503 kts | 44° |
| 2026-05-04 17:34 | 42.60125 | 5.83215 | 34985 ft | 502 kts | 44° |
| 2026-05-04 17:35 | 42.72368 | 6.00048 | 34997 ft | 502 kts | 44° |
| 2026-05-04 17:36 | 42.77267 | 6.06814 | 35008 ft | 502 kts | 44° |
| 2026-05-04 17:36 | 42.82161 | 6.13586 | 35009 ft | 502 kts | 44° |
| 2026-05-04 17:37 | 42.87144 | 6.20242 | 35037 ft | 502 kts | 39° |
| 2026-05-04 17:37 | 42.92524 | 6.26435 | 34989 ft | 510 kts | 37° |
| 2026-05-04 17:38 | 42.98018 | 6.32579 | 34992 ft | 512 kts | 37° |
| 2026-05-04 17:38 | 43.03499 | 6.38820 | 35012 ft | 513 kts | 38° |
| 2026-05-04 17:39 | 43.11679 | 6.48273 | 35014 ft | 513 kts | 38° |
| 2026-05-04 17:39 | 43.17122 | 6.54580 | 35037 ft | 512 kts | 38° |
| 2026-05-04 17:40 | 43.22426 | 6.61075 | 35034 ft | 512 kts | 46° |
| 2026-05-04 17:40 | 43.26704 | 6.68868 | 35041 ft | 511 kts | 54° |
| 2026-05-04 17:41 | 43.30780 | 6.76851 | 35040 ft | 510 kts | 54° |
| 2026-05-04 17:41 | 43.34913 | 6.84741 | 35041 ft | 508 kts | 53° |
| 2026-05-04 17:42 | 43.36877 | 6.88465 | 35045 ft | 508 kts | 53° |
| 2026-05-04 17:42 | 43.41000 | 6.96312 | 35046 ft | 507 kts | 53° |
| 2026-05-04 17:43 | 43.44127 | 7.02285 | 35049 ft | 507 kts | 53° |
| 2026-05-04 17:43 | 43.48239 | 7.10163 | 35044 ft | 507 kts | 53° |
| 2026-05-04 17:44 | 43.51680 | 7.16770 | 35055 ft | 507 kts | 53° |
| 2026-05-04 17:44 | 43.55788 | 7.24675 | 35048 ft | 508 kts | 53° |
| 2026-05-04 17:45 | 43.59897 | 7.32605 | 35049 ft | 508 kts | 53° |
| 2026-05-04 17:45 | 43.63979 | 7.40501 | 35046 ft | 509 kts | 53° |
| 2026-05-04 17:46 | 43.68085 | 7.48467 | 35050 ft | 509 kts | 53° |
| 2026-05-04 17:46 | 43.72185 | 7.56446 | 35046 ft | 509 kts | 53° |
| 2026-05-04 17:47 | 43.76281 | 7.64434 | 35055 ft | 509 kts | 53° |
| 2026-05-04 17:47 | 43.80376 | 7.72424 | 35059 ft | 508 kts | 51° |
| 2026-05-04 17:48 | 43.85264 | 7.79357 | 35067 ft | 500 kts | 33° |
| 2026-05-04 17:48 | 43.90848 | 7.85088 | 35078 ft | 499 kts | 33° |
| 2026-05-04 17:49 | 43.96584 | 7.90403 | 35091 ft | 492 kts | 21° |
| 2026-05-04 17:49 | 44.02900 | 7.93775 | 35089 ft | 485 kts | 14° |
| 2026-05-04 17:50 | 44.09263 | 7.96826 | 35108 ft | 484 kts | 14° |
| 2026-05-04 17:50 | 44.15575 | 7.99907 | 35109 ft | 484 kts | 14° |
| 2026-05-04 17:51 | 44.21916 | 8.03071 | 35111 ft | 484 kts | 15° |
| 2026-05-04 17:51 | 44.28264 | 8.06270 | 35098 ft | 485 kts | 15° |
| 2026-05-04 17:52 | 44.34607 | 8.09476 | 35095 ft | 485 kts | 15° |
| 2026-05-04 17:52 | 44.40947 | 8.12686 | 35088 ft | 484 kts | 15° |
| 2026-05-04 17:53 | 44.47276 | 8.15896 | 35096 ft | 483 kts | 15° |
| 2026-05-04 17:53 | 44.53589 | 8.19104 | 35088 ft | 482 kts | 15° |
| 2026-05-04 17:54 | 44.59878 | 8.22305 | 35092 ft | 480 kts | 16° |
| 2026-05-04 17:54 | 44.66155 | 8.25510 | 35083 ft | 480 kts | 16° |
| 2026-05-04 17:55 | 44.72431 | 8.28722 | 35074 ft | 480 kts | 16° |
| 2026-05-04 17:55 | 44.78700 | 8.31937 | 35083 ft | 479 kts | 16° |
| 2026-05-04 17:56 | 44.84964 | 8.35157 | 35076 ft | 479 kts | 16° |
| 2026-05-04 17:56 | 44.91224 | 8.38383 | 35080 ft | 479 kts | 16° |
| 2026-05-04 17:57 | 44.97477 | 8.41612 | 35080 ft | 479 kts | 16° |
| 2026-05-04 17:57 | 45.03729 | 8.44848 | 35090 ft | 478 kts | 16° |
| 2026-05-04 17:58 | 45.09976 | 8.48090 | 35091 ft | 478 kts | 17° |
| 2026-05-04 17:58 | 45.16217 | 8.51336 | 35064 ft | 478 kts | 17° |
| 2026-05-04 17:59 | 45.22411 | 8.54565 | 35055 ft | 477 kts | 17° |
| 2026-05-04 18:00 | 45.31755 | 8.59450 | 35047 ft | 477 kts | 17° |
| 2026-05-04 18:00 | 45.37978 | 8.62713 | 35050 ft | 476 kts | 17° |
| 2026-05-04 18:01 | 45.44194 | 8.65980 | 35053 ft | 476 kts | 17° |
| 2026-05-04 18:01 | 45.50402 | 8.69251 | 35078 ft | 475 kts | 17° |
| 2026-05-04 18:02 | 45.59698 | 8.74163 | 35088 ft | 474 kts | 17° |
| 2026-05-04 18:02 | 45.65882 | 8.77440 | 35077 ft | 474 kts | 17° |
| 2026-05-04 18:03 | 45.72061 | 8.80722 | 35082 ft | 474 kts | 17° |
| 2026-05-04 18:03 | 45.78242 | 8.84013 | 35076 ft | 474 kts | 17° |
| 2026-05-04 18:04 | 45.84415 | 8.87308 | 35072 ft | 473 kts | 18° |
| 2026-05-04 18:05 | 45.93674 | 8.92265 | 35074 ft | 474 kts | 18° |
| 2026-05-04 18:05 | 45.99806 | 8.95558 | 35078 ft | 474 kts | 18° |
| 2026-05-04 18:06 | 46.09069 | 9.00546 | 35079 ft | 474 kts | 18° |
| 2026-05-04 18:06 | 46.15339 | 9.03382 | 35086 ft | 470 kts | 6° |
| 2026-05-04 18:07 | 46.21804 | 9.03698 | 35087 ft | 463 kts | 351° |
| 2026-05-04 18:07 | 46.28208 | 9.02715 | 35093 ft | 463 kts | 350° |
| 2026-05-04 18:08 | 46.34636 | 9.01774 | 35096 ft | 464 kts | 351° |
| 2026-05-04 18:08 | 46.41070 | 9.00912 | 35109 ft | 464 kts | 351° |
| 2026-05-04 18:09 | 46.53952 | 8.99181 | 35107 ft | 465 kts | 351° |
| 2026-05-04 18:10 | 46.60391 | 8.98312 | 35091 ft | 464 kts | 351° |
| 2026-05-04 18:10 | 46.66816 | 8.97442 | 35103 ft | 464 kts | 351° |
| 2026-05-04 18:11 | 46.73254 | 8.96563 | 35079 ft | 465 kts | 351° |
| 2026-05-04 18:11 | 46.79648 | 8.95689 | 35083 ft | 465 kts | 351° |
| 2026-05-04 18:12 | 46.86094 | 8.94815 | 35041 ft | 465 kts | 351° |
| 2026-05-04 18:12 | 46.92534 | 8.93930 | 35040 ft | 465 kts | 351° |
| 2026-05-04 18:13 | 46.98919 | 8.93061 | 35032 ft | 466 kts | 352° |
| 2026-05-04 18:14 | 47.08612 | 8.91731 | 35021 ft | 467 kts | 351° |
| 2026-05-04 18:14 | 47.15092 | 8.90838 | 35007 ft | 468 kts | 352° |
| 2026-05-04 18:15 | 47.28058 | 8.91684 | 33640 ft | 483 kts | 28° |
| 2026-05-04 18:15 | 47.30789 | 8.94534 | 33012 ft | 481 kts | 44° |
| 2026-05-04 18:16 | 47.32884 | 8.98339 | 32331 ft | 478 kts | 61° |
| 2026-05-04 18:16 | 47.34504 | 9.02600 | 31650 ft | 476 kts | 64° |
| 2026-05-04 18:16 | 47.36083 | 9.06884 | 31103 ft | 473 kts | 63° |
| 2026-05-04 18:17 | 47.39266 | 9.15293 | 30113 ft | 464 kts | 67° |
| 2026-05-04 18:17 | 47.40417 | 9.19698 | 29562 ft | 457 kts | 77° |
| 2026-05-04 18:17 | 47.41296 | 9.28745 | 28720 ft | 438 kts | 94° |
| 2026-05-04 18:18 | 47.41241 | 9.33208 | 28235 ft | 433 kts | 95° |
| 2026-05-04 18:18 | 47.41162 | 9.37640 | 27742 ft | 430 kts | 94° |
| 2026-05-04 18:18 | 47.41091 | 9.42044 | 27244 ft | 428 kts | 94° |
| 2026-05-04 18:18 | 47.41035 | 9.46419 | 26755 ft | 425 kts | 94° |
| 2026-05-04 18:19 | 47.40947 | 9.55111 | 25795 ft | 422 kts | 94° |
| 2026-05-04 18:19 | 47.40906 | 9.59436 | 25318 ft | 421 kts | 93° |
| 2026-05-04 18:19 | 47.40859 | 9.63751 | 24841 ft | 419 kts | 94° |
| 2026-05-04 18:20 | 47.40576 | 9.68013 | 24279 ft | 418 kts | 102° |
| 2026-05-04 18:20 | 47.40042 | 9.72235 | 23752 ft | 418 kts | 104° |
| 2026-05-04 18:20 | 47.39466 | 9.76433 | 23194 ft | 418 kts | 104° |
| 2026-05-04 18:20 | 47.38886 | 9.80619 | 22690 ft | 416 kts | 104° |
| 2026-05-04 18:21 | 47.38316 | 9.84792 | 22184 ft | 414 kts | 104° |
| 2026-05-04 18:21 | 47.37758 | 9.88950 | 21724 ft | 411 kts | 104° |
| 2026-05-04 18:21 | 47.37210 | 9.93077 | 21244 ft | 409 kts | 103° |
| 2026-05-04 18:21 | 47.36666 | 9.97191 | 20771 ft | 407 kts | 103° |
| 2026-05-04 18:22 | 47.36127 | 10.01269 | 20301 ft | 405 kts | 103° |
| 2026-05-04 18:22 | 47.35589 | 10.05332 | 19840 ft | 402 kts | 104° |
| 2026-05-04 18:22 | 47.35054 | 10.09373 | 19387 ft | 400 kts | 104° |
| 2026-05-04 18:22 | 47.34518 | 10.13392 | 18914 ft | 399 kts | 104° |
| 2026-05-04 18:23 | 47.33980 | 10.17405 | 18443 ft | 398 kts | 104° |
| 2026-05-04 18:23 | 47.33446 | 10.21400 | 17930 ft | 396 kts | 104° |
| 2026-05-04 18:23 | 47.32912 | 10.25377 | 17421 ft | 393 kts | 103° |
| 2026-05-04 18:23 | 47.32385 | 10.29294 | 17030 ft | 388 kts | 104° |
| 2026-05-04 18:24 | 47.31854 | 10.33201 | 16532 ft | 389 kts | 104° |
| 2026-05-04 18:24 | 47.31319 | 10.37105 | 16066 ft | 388 kts | 104° |
| 2026-05-04 18:24 | 47.30785 | 10.40983 | 15604 ft | 385 kts | 104° |
| 2026-05-04 18:24 | 47.30253 | 10.44840 | 15163 ft | 383 kts | 104° |
| 2026-05-04 18:25 | 47.29724 | 10.48684 | 14691 ft | 382 kts | 104° |
| 2026-05-04 18:25 | 47.29198 | 10.52502 | 14267 ft | 380 kts | 104° |
| 2026-05-04 18:25 | 47.28685 | 10.56270 | 13779 ft | 379 kts | 101° |
| 2026-05-04 18:25 | 47.28598 | 10.60153 | 13465 ft | 369 kts | 87° |
| 2026-05-04 18:26 | 47.28844 | 10.63846 | 13060 ft | 358 kts | 86° |
| 2026-05-04 18:26 | 47.29073 | 10.67380 | 13026 ft | 335 kts | 87° |
| 2026-05-04 18:26 | 47.29264 | 10.70701 | 12967 ft | 317 kts | 87° |
| 2026-05-04 18:26 | 47.29431 | 10.73861 | 12847 ft | 303 kts | 88° |
| 2026-05-04 18:27 | 47.29585 | 10.76885 | 12734 ft | 289 kts | 88° |
| 2026-05-04 18:27 | 47.29729 | 10.79766 | 12624 ft | 275 kts | 88° |
| 2026-05-04 18:27 | 47.29865 | 10.82500 | 12385 ft | 261 kts | 88° |
| 2026-05-04 18:27 | 47.29995 | 10.85144 | 11832 ft | 258 kts | 88° |
| 2026-05-04 18:28 | 47.30123 | 10.87769 | 11265 ft | 256 kts | 88° |
| 2026-05-04 18:28 | 47.30249 | 10.90367 | 10718 ft | 253 kts | 88° |
| 2026-05-04 18:28 | 47.30374 | 10.92903 | 10206 ft | 250 kts | 88° |
| 2026-05-04 18:28 | 47.30499 | 10.95434 | 9662 ft | 247 kts | 88° |
| 2026-05-04 18:29 | 47.30621 | 10.97937 | 9190 ft | 240 kts | 88° |
| 2026-05-04 18:29 | 47.30735 | 11.00264 | 9038 ft | 219 kts | 88° |
| 2026-05-04 18:29 | 47.30843 | 11.02499 | 8465 ft | 219 kts | 88° |
| 2026-05-04 18:29 | 47.30950 | 11.04731 | 7921 ft | 218 kts | 88° |
| 2026-05-04 18:30 | 47.30538 | 11.09033 | 6861 ft | 211 kts | 115° |
| 2026-05-04 18:30 | 47.29899 | 11.10962 | 6385 ft | 207 kts | 118° |
| 2026-05-04 18:30 | 47.29267 | 11.12777 | 6164 ft | 189 kts | 118° |
| 2026-05-04 18:31 | 47.28672 | 11.14514 | 5516 ft | 196 kts | 118° |
| 2026-05-04 18:31 | 47.28052 | 11.16353 | 4799 ft | 205 kts | 117° |
| 2026-05-04 18:31 | 47.27426 | 11.18230 | 4334 ft | 199 kts | 116° |
| 2026-05-04 18:31 | 47.26836 | 11.20009 | 4005 ft | 186 kts | 117° |
| 2026-05-04 18:32 | 47.26462 | 11.21136 | 3852 ft | 177 kts | 117° |
| 2026-05-04 18:32 | 47.25926 | 11.22751 | 3621 ft | 181 kts | 116° |
| 2026-05-04 18:32 | 47.25384 | 11.24423 | 3347 ft | 178 kts | 115° |
| 2026-05-04 18:32 | 47.25124 | 11.26115 | 3081 ft | 163 kts | 81° |
| 2026-05-04 18:33 | 47.25298 | 11.27688 | 2924 ft | 156 kts | 81° |
| 2026-05-04 18:33 | 47.25482 | 11.29272 | 2642 ft | 154 kts | 84° |
| 2026-05-04 18:33 | 47.25627 | 11.30820 | 2339 ft | 151 kts | 83° |
| 2026-05-04 18:33 | 47.25802 | 11.32320 | 2063 ft | 146 kts | 85° |
| 2026-05-04 18:34 | 47.25960 | 11.33774 | 1912 ft | 140 kts | 83° |
| 2026-05-04 18:34 | 47.26074 | 11.34880 | 1904 ft | 49 kts | 81° |
| 2026-05-04 18:34 | 47.26108 | 11.35200 | 1905 ft | 18 kts | 86° |
| 2026-05-04 18:34 | 47.26040 | 11.35264 | 1907 ft | 12 kts | 173° |
| 2026-05-04 18:35 | 47.25995 | 11.35274 | 1909 ft | 0 kts | 171° |
| 2026-05-04 18:35 | 47.25992 | 11.35274 | 1910 ft | 2 kts | 171° |
| 2026-05-04 18:36 | 47.25946 | 11.35285 | 1904 ft | 9 kts | 171° |
| 2026-05-04 18:36 | 47.25901 | 11.35256 | 1909 ft | 7 kts | 243° |
| 2026-05-04 18:36 | 47.25890 | 11.35161 | 1908 ft | 12 kts | 262° |
| 2026-05-04 18:36 | 47.25859 | 11.35096 | 1908 ft | 5 kts | 187° |
| 2026-05-04 18:37 | 47.25846 | 11.35104 | 1913 ft | 2 kts | 160° |
| 2026-05-04 18:37 | 47.25831 | 11.35108 | 1904 ft | 2 kts | 169° |
| 2026-05-04 18:37 | 47.25829 | 11.35109 | 1905 ft | 0 kts | 169° |